Time;durP1;ratioP1;P1;durP2;ratioP2;P2;SDS_P1;SDS_P2;PMS_P1;PMS_P2;Temp;Humidity;BMP_temperature;BMP_pressure;BME280_temperature;BME280_humidity;BME280_pressure;Samples;Min_cycle;Max_cycle;Signal;HPM_P1;HPM_P2
2022/01/16 00:00:41;;;;;;;17.88;9.82;;;-1.60;99.90;;;;;;4996715;28;20496;-80
2022/01/16 00:05:52;;;;;;;17.52;10.23;;;-1.70;99.90;;;;;;5014670;28;20048;-79
2022/01/16 00:08:17;;;;;;;19.92;10.95;;;-1.70;99.90;;;;;;5014264;28;20105;-79
2022/01/16 00:10:43;;;;;;;15.75;8.95;;;-1.80;99.90;;;;;;5014175;28;20385;-79
2022/01/16 00:13:09;;;;;;;20.50;8.85;;;-1.80;99.90;;;;;;5012514;28;20026;-78
2022/01/16 00:15:35;;;;;;;12.23;6.72;;;-1.90;99.90;;;;;;4996661;28;20093;-81
2022/01/16 00:18:10;;;;;;;15.80;6.93;;;-2.00;99.90;;;;;;5012828;28;20038;-79
2022/01/16 00:20:36;;;;;;;11.23;6.10;;;-2.00;99.90;;;;;;4996754;28;20026;-79
2022/01/16 00:23:08;;;;;;;15.10;7.28;;;-2.00;99.90;;;;;;5014080;28;20465;-79
2022/01/16 00:25:34;;;;;;;14.50;7.88;;;-2.10;99.90;;;;;;5012884;28;20488;-80
2022/01/16 00:28:00;;;;;;;21.33;10.60;;;-2.20;99.90;;;;;;5012425;28;20021;-79
2022/01/16 00:30:25;;;;;;;29.67;12.70;;;-2.20;99.90;;;;;;5012881;28;20117;-80
2022/01/16 00:32:51;;;;;;;25.02;13.07;;;-2.20;99.90;;;;;;4996446;28;20404;-80
2022/01/16 00:35:17;;;;;;;30.55;13.85;;;-2.30;99.90;;;;;;4996036;28;20022;-79
2022/01/16 00:37:42;;;;;;;31.90;14.40;;;-2.30;99.90;;;;;;4996085;28;20068;-80
2022/01/16 00:40:09;;;;;;;31.52;14.75;;;-2.30;99.90;;;;;;4995413;28;20393;-79
2022/01/16 00:42:36;;;;;;;28.40;13.73;;;-2.20;99.90;;;;;;5012334;28;20030;-79
2022/01/16 00:45:03;;;;;;;27.42;14.43;;;-2.30;99.90;;;;;;5013561;28;20152;-80
2022/01/16 00:47:29;;;;;;;25.63;13.85;;;-2.20;99.90;;;;;;5013336;28;20022;-79
2022/01/16 00:49:55;;;;;;;28.20;14.90;;;-2.30;99.90;;;;;;5012321;28;20022;-80
2022/01/16 00:52:20;;;;;;;32.30;15.23;;;-2.20;99.90;;;;;;5012250;28;20367;-79
2022/01/16 00:54:46;;;;;;;29.63;14.45;;;-2.30;99.90;;;;;;5013330;28;20473;-80
2022/01/16 00:57:12;;;;;;;29.40;14.50;;;-2.30;99.90;;;;;;4995721;28;20026;-79
2022/01/16 00:59:38;;;;;;;31.35;15.10;;;-2.30;99.90;;;;;;5013138;28;20468;-79
2022/01/16 01:02:04;;;;;;;31.08;15.20;;;-2.40;99.90;;;;;;5013303;28;20018;-80
2022/01/16 01:04:30;;;;;;;29.98;15.23;;;-2.30;99.90;;;;;;5012027;28;20033;-80
2022/01/16 01:06:55;;;;;;;26.38;14.52;;;-2.40;99.90;;;;;;5013082;28;20433;-80
2022/01/16 01:09:21;;;;;;;27.58;13.38;;;-2.40;99.90;;;;;;5013269;28;20014;-79
2022/01/16 01:11:49;;;;;;;25.13;12.82;;;-2.40;99.90;;;;;;4995367;28;20109;-78
2022/01/16 01:15:06;;;;;;;23.27;12.43;;;-2.50;99.90;;;;;;4995525;28;20200;-78
2022/01/16 01:17:09;;;;;;;25.10;14.15;;;-2.50;99.90;;;;;;5004687;28;20038;-79
2022/01/16 01:19:35;;;;;;;30.50;13.48;;;-2.50;99.90;;;;;;5011810;28;20057;-78
2022/01/16 01:22:04;;;;;;;26.77;12.63;;;-2.60;99.90;;;;;;5013299;28;20445;-78
2022/01/16 01:24:30;;;;;;;25.60;13.57;;;-2.60;99.90;;;;;;5012847;28;20033;-80
2022/01/16 01:27:06;;;;;;;27.13;13.07;;;-2.60;99.90;;;;;;4995360;28;20109;-79
2022/01/16 01:29:32;;;;;;;22.13;12.68;;;-2.60;99.90;;;;;;5011985;28;20026;-79
2022/01/16 01:31:58;;;;;;;25.15;12.52;;;-2.60;99.90;;;;;;4995199;28;20558;-80
2022/01/16 01:34:24;;;;;;;25.30;13.02;;;-2.70;99.90;;;;;;5011862;28;20029;-78
2022/01/16 01:36:51;;;;;;;23.40;13.00;;;-2.70;99.90;;;;;;5011557;28;20386;-79
2022/01/16 01:39:21;;;;;;;21.92;12.40;;;-2.70;99.90;;;;;;4994994;28;20553;-78
2022/01/16 01:41:50;;;;;;;30.23;15.07;;;-2.80;99.90;;;;;;5011774;28;20061;-79
2022/01/16 01:52:28;;;;;;;23.40;12.75;;;-2.80;99.90;;;;;;5014345;28;20084;-80
2022/01/16 01:54:54;;;;;;;22.98;11.38;;;-2.80;99.90;;;;;;4998896;28;20437;-79
2022/01/16 01:57:20;;;;;;;30.17;14.07;;;-2.80;99.90;;;;;;5015371;28;20009;-80
2022/01/16 01:59:46;;;;;;;24.77;13.15;;;-2.90;99.90;;;;;;4998936;28;20455;-80
2022/01/16 02:02:12;;;;;;;23.95;12.13;;;-2.90;99.90;;;;;;4998581;28;20470;-80
2022/01/16 02:04:37;;;;;;;23.85;12.00;;;-2.90;99.90;;;;;;5014831;28;20053;-79
2022/01/16 02:07:03;;;;;;;20.70;12.73;;;-2.90;99.90;;;;;;5016178;28;20025;-80
2022/01/16 02:09:31;;;;;;;25.00;12.70;;;-3.00;99.90;;;;;;5016139;28;20182;-81
2022/01/16 02:11:58;;;;;;;24.80;12.25;;;-3.00;99.90;;;;;;5014975;28;20108;-80
2022/01/16 02:14:45;;;;;;;21.98;11.20;;;-3.00;99.90;;;;;;5015847;28;20029;-82
2022/01/16 02:29:13;;;;;;;;;;;-3.00;99.90;;;;;;5016284;28;20084;-79
2022/01/16 02:36:31;;;;;;;20.73;12.00;;;-3.20;99.90;;;;;;5015815;28;20041;-80
2022/01/16 02:39:09;;;;;;;24.08;12.30;;;-3.30;99.90;;;;;;5014034;28;20104;-81
2022/01/16 02:41:35;;;;;;;22.73;12.18;;;-3.30;99.90;;;;;;5014373;28;20029;-81
2022/01/16 02:44:11;;;;;;;23.00;11.85;;;-3.30;99.90;;;;;;5014459;28;20175;-81
2022/01/16 02:46:37;;;;;;;17.27;10.88;;;-3.30;99.90;;;;;;5013939;28;20022;-80
2022/01/16 02:49:03;;;;;;;23.45;11.77;;;-3.40;99.90;;;;;;4998054;28;20037;-82
2022/01/16 02:51:29;;;;;;;18.83;10.38;;;-3.40;99.90;;;;;;4997748;28;20394;-79
2022/01/16 02:53:55;;;;;;;19.50;10.80;;;-3.40;99.90;;;;;;5014150;28;20030;-81
2022/01/16 02:56:21;;;;;;;20.63;10.68;;;-3.40;99.90;;;;;;5013841;28;20109;-80
2022/01/16 02:58:49;;;;;;;19.98;11.10;;;-3.40;99.90;;;;;;4997346;28;20120;-79
2022/01/16 03:01:15;;;;;;;18.38;10.65;;;-3.40;99.90;;;;;;5015018;28;20026;-81
2022/01/16 03:03:41;;;;;;;24.83;11.57;;;-3.40;99.90;;;;;;5013103;28;20049;-81
2022/01/16 03:06:07;;;;;;;20.05;11.27;;;-3.40;99.90;;;;;;5015316;28;20030;-81
2022/01/16 03:08:33;;;;;;;18.55;10.63;;;-3.40;99.90;;;;;;5015219;28;20084;-81
2022/01/16 03:13:53;;;;;;;20.23;13.00;;;-3.40;99.90;;;;;;5005690;28;20042;-79
2022/01/16 03:16:21;;;;;;;19.15;11.15;;;-3.40;99.90;;;;;;5014487;28;21736;-79
2022/01/16 03:24:17;;;;;;;18.47;10.30;;;-3.40;99.90;;;;;;5015040;28;20496;-79
2022/01/16 03:26:43;;;;;;;22.00;10.85;;;-3.40;99.90;;;;;;4996909;28;20302;-80
2022/01/16 03:29:09;;;;;;;17.73;9.77;;;-3.40;99.90;;;;;;5014483;28;20054;-79
2022/01/16 03:31:35;;;;;;;18.00;10.75;;;-3.50;99.90;;;;;;5013251;28;20060;-81
2022/01/16 03:34:00;;;;;;;25.27;12.18;;;-3.50;99.90;;;;;;4996795;28;20018;-80
2022/01/16 03:36:26;;;;;;;20.05;11.98;;;-3.50;99.90;;;;;;5014551;28;20096;-80
2022/01/16 03:38:52;;;;;;;23.65;11.43;;;-3.50;99.90;;;;;;5014107;28;20073;-80
2022/01/16 03:41:18;;;;;;;17.13;9.43;;;-3.50;99.90;;;;;;4996780;28;20088;-79
2022/01/16 03:43:44;;;;;;;19.90;11.05;;;-3.60;99.90;;;;;;5014477;28;20105;-79
2022/01/16 03:46:10;;;;;;;21.90;10.70;;;-3.60;99.90;;;;;;5012628;28;20450;-79
2022/01/16 03:48:35;;;;;;;17.23;9.38;;;-3.60;99.90;;;;;;5013203;28;20386;-80
2022/01/16 03:51:01;;;;;;;19.60;9.85;;;-3.60;99.90;;;;;;5012979;28;20018;-80
2022/01/16 03:53:27;;;;;;;16.92;9.23;;;-3.60;99.90;;;;;;5014193;28;20036;-80
2022/01/16 03:55:52;;;;;;;21.80;10.38;;;-3.60;99.90;;;;;;5012923;28;20527;-80
2022/01/16 03:58:18;;;;;;;21.80;10.75;;;-3.60;99.90;;;;;;4996206;28;20513;-80
2022/01/16 04:00:44;;;;;;;24.48;12.00;;;-3.60;99.90;;;;;;4996337;28;20631;-79
2022/01/16 04:03:11;;;;;;;19.77;12.95;;;-3.60;99.90;;;;;;4996333;28;20026;-80
2022/01/16 04:05:37;;;;;;;24.55;13.85;;;-3.60;99.90;;;;;;5012804;28;20480;-79
2022/01/16 04:08:03;;;;;;;21.15;12.93;;;-3.60;99.90;;;;;;4996108;28;20117;-80
2022/01/16 04:10:29;;;;;;;23.25;12.63;;;-3.60;99.90;;;;;;5012825;28;20026;-80
2022/01/16 04:12:55;;;;;;;21.80;12.55;;;-3.60;99.90;;;;;;4996063;28;20073;-78
2022/01/16 04:17:47;;;;;;;21.63;10.38;;;-3.60;99.90;;;;;;5013542;28;20358;-79
2022/01/16 04:20:16;;;;;;;20.92;11.68;;;-3.70;99.90;;;;;;5013473;28;20029;-79
2022/01/16 04:22:43;;;;;;;24.85;11.43;;;-3.70;99.90;;;;;;5012327;28;20363;-80
2022/01/16 04:25:09;;;;;;;19.55;10.70;;;-3.70;99.90;;;;;;5012464;28;20028;-80
2022/01/16 04:27:35;;;;;;;18.00;10.63;;;-3.80;99.90;;;;;;4995740;28;20022;-80
2022/01/16 04:30:00;;;;;;;25.67;11.40;;;-3.80;99.90;;;;;;4995694;28;20097;-80
2022/01/16 04:32:26;;;;;;;21.02;11.07;;;-3.90;99.90;;;;;;4995610;28;20359;-79
2022/01/16 04:34:52;;;;;;;17.70;10.27;;;-3.90;99.90;;;;;;4995693;28;20030;-78
2022/01/16 04:37:17;;;;;;;19.05;11.25;;;-3.90;99.90;;;;;;4995604;28;20022;-79
2022/01/16 04:39:50;;;;;;;20.08;10.93;;;-4.00;99.90;;;;;;4995793;28;20057;-81
2022/01/16 04:45:00;;;;;;;16.55;9.27;;;-4.00;99.90;;;;;;5013299;28;20029;-80
2022/01/16 04:47:26;;;;;;;16.65;8.75;;;-4.00;99.90;;;;;;4996454;28;20381;-84
2022/01/16 04:49:52;;;;;;;15.57;9.48;;;-4.10;99.90;;;;;;5013927;28;20034;-81
2022/01/16 04:52:17;;;;;;;19.00;9.38;;;-4.10;99.90;;;;;;5015615;28;20018;-80
2022/01/16 04:54:43;;;;;;;16.80;8.70;;;-4.10;99.90;;;;;;5014314;28;20116;-83
2022/01/16 04:57:12;;;;;;;15.10;9.27;;;-4.20;99.90;;;;;;4996892;28;20093;-82
2022/01/16 04:59:38;;;;;;;18.83;9.60;;;-4.20;99.90;;;;;;5012627;28;20128;-81
2022/01/16 05:02:04;;;;;;;15.98;8.25;;;-4.20;99.90;;;;;;5012956;28;20060;-80
2022/01/16 05:04:29;;;;;;;19.52;9.65;;;-4.20;99.90;;;;;;4996247;28;20025;-79
2022/01/16 05:06:55;;;;;;;18.83;9.27;;;-4.30;99.90;;;;;;4996105;28;20034;-80
2022/01/16 05:09:21;;;;;;;16.60;9.93;;;-4.30;99.90;;;;;;4996164;28;20049;-79
2022/01/16 05:11:53;;;;;;;16.20;9.52;;;-4.30;99.90;;;;;;5012035;28;20385;-80
2022/01/16 05:17:03;;;;;;;18.25;10.52;;;-4.20;99.90;;;;;;5013155;28;20037;-79
2022/01/16 05:19:28;;;;;;;18.58;9.77;;;-4.30;99.90;;;;;;4995384;28;20038;-79
2022/01/16 05:21:54;;;;;;;15.15;8.77;;;-4.30;99.90;;;;;;4995940;28;20026;-79
2022/01/16 05:24:20;;;;;;;17.38;10.18;;;-4.30;99.90;;;;;;5013134;28;20034;-79
2022/01/16 05:26:45;;;;;;;16.42;8.98;;;-4.30;99.90;;;;;;5012712;28;20037;-80
2022/01/16 05:29:13;;;;;;;20.52;9.70;;;-4.40;99.90;;;;;;5013193;28;20065;-80
2022/01/16 05:31:44;;;;;;;16.20;8.43;;;-4.40;99.90;;;;;;5011987;28;20022;-78
2022/01/16 05:34:12;;;;;;;20.40;9.63;;;-4.40;99.90;;;;;;5011865;28;20029;-79
2022/01/16 05:36:37;;;;;;;15.75;9.38;;;-4.40;99.90;;;;;;5011757;28;20032;-79
2022/01/16 05:39:03;;;;;;;13.48;8.13;;;-4.40;99.90;;;;;;5012629;28;20050;-78
2022/01/16 05:41:29;;;;;;;19.63;9.13;;;-4.40;99.90;;;;;;5011956;28;20026;-79
2022/01/16 05:43:54;;;;;;;15.98;7.88;;;-4.40;99.90;;;;;;4995507;28;20385;-79
2022/01/16 05:46:20;;;;;;;15.82;8.75;;;-4.50;99.90;;;;;;5011518;28;20048;-79
2022/01/16 05:48:46;;;;;;;12.90;8.05;;;-4.40;99.90;;;;;;5011893;28;20116;-80
2022/01/16 05:51:11;;;;;;;23.27;11.65;;;-4.50;99.90;;;;;;5011622;28;20018;-79
2022/01/16 05:53:37;;;;;;;22.02;10.38;;;-4.50;99.90;;;;;;4995324;28;20109;-80
2022/01/16 05:56:04;;;;;;;17.80;10.57;;;-4.50;99.90;;;;;;5012976;28;20018;-80
2022/01/16 05:58:30;;;;;;;17.92;9.55;;;-4.50;99.90;;;;;;5011661;28;20608;-79
2022/01/16 06:00:56;;;;;;;13.93;8.48;;;-4.50;99.90;;;;;;5012935;28;20057;-80
2022/01/16 06:03:22;;;;;;;14.93;8.27;;;-4.50;99.90;;;;;;5012839;28;20101;-80
2022/01/16 06:05:48;;;;;;;24.05;11.85;;;-4.50;99.90;;;;;;5013103;28;20044;-80
2022/01/16 06:08:14;;;;;;;22.98;12.27;;;-4.50;99.90;;;;;;5012845;28;20029;-80
2022/01/16 06:10:41;;;;;;;25.67;10.85;;;-4.50;99.90;;;;;;4995133;28;20049;-80
2022/01/16 06:13:07;;;;;;;17.10;9.65;;;-4.60;99.90;;;;;;4995441;28;20026;-79
2022/01/16 06:15:34;;;;;;;19.92;8.38;;;-4.60;99.90;;;;;;5012730;28;20018;-78
2022/01/16 06:18:00;;;;;;;26.10;10.60;;;-4.60;99.90;;;;;;5011282;28;20049;-80
2022/01/16 06:20:27;;;;;;;31.17;12.95;;;-4.60;99.90;;;;;;4995197;28;20030;-78
2022/01/16 06:22:55;;;;;;;24.13;11.18;;;-4.60;99.90;;;;;;4995187;28;20088;-79
2022/01/16 06:25:23;;;;;;;20.65;9.60;;;-4.60;99.90;;;;;;4994539;28;20028;-80
2022/01/16 06:27:49;;;;;;;18.20;9.75;;;-4.60;99.90;;;;;;5012619;28;20014;-80
2022/01/16 06:30:15;;;;;;;19.92;9.93;;;-4.60;99.90;;;;;;5012134;28;20105;-79
2022/01/16 06:32:41;;;;;;;32.00;13.45;;;-4.70;99.90;;;;;;5011861;28;20101;-80
2022/01/16 06:35:08;;;;;;;26.45;13.50;;;-4.60;99.90;;;;;;5010727;28;20026;-80
2022/01/16 06:37:33;;;;;;;31.83;12.80;;;-4.60;99.90;;;;;;5010999;28;20034;-79
2022/01/16 06:39:59;;;;;;;24.88;11.77;;;-4.60;99.90;;;;;;5015236;28;20490;-79
2022/01/16 06:42:26;;;;;;;20.08;10.57;;;-4.60;99.90;;;;;;4998084;28;20405;-80
2022/01/16 06:44:52;;;;;;;27.40;13.38;;;-4.60;99.90;;;;;;4997856;28;20030;-81
2022/01/16 06:47:18;;;;;;;27.27;13.32;;;-4.60;99.90;;;;;;4997890;28;20083;-80
2022/01/16 06:49:43;;;;;;;28.45;13.70;;;-4.60;99.90;;;;;;4998002;28;20030;-81
2022/01/16 06:52:09;;;;;;;28.88;14.63;;;-4.60;99.90;;;;;;5014403;28;20036;-80
2022/01/16 06:54:35;;;;;;;31.63;14.25;;;-4.60;99.90;;;;;;5015917;28;20029;-80
2022/01/16 06:57:01;;;;;;;27.08;13.25;;;-3.70;99.90;;;;;;5000337;28;20061;-80
2022/01/16 06:59:26;;;;;;;28.67;13.23;;;-3.70;99.90;;;;;;4998528;28;20030;-79
2022/01/16 07:01:52;;;;;;;25.08;13.13;;;-3.90;99.90;;;;;;4998121;28;20359;-79
2022/01/16 07:04:18;;;;;;;24.65;12.90;;;-4.00;99.90;;;;;;4998433;28;20470;-78
2022/01/16 07:06:43;;;;;;;27.85;13.07;;;-4.10;99.90;;;;;;5001511;28;20018;-79
2022/01/16 07:09:09;;;;;;;26.33;13.77;;;-4.20;99.90;;;;;;4998136;28;20355;-78
2022/01/16 07:11:35;;;;;;;22.67;12.43;;;-4.20;99.90;;;;;;4998078;28;20556;-79
2022/01/16 07:14:00;;;;;;;18.70;10.93;;;-4.30;99.90;;;;;;5014088;28;20049;-79
2022/01/16 07:16:26;;;;;;;26.75;11.40;;;-4.30;99.90;;;;;;4997580;28;20034;-79
2022/01/16 07:18:52;;;;;;;22.08;12.10;;;-4.20;99.90;;;;;;4997797;28;20038;-78
2022/01/16 07:21:17;;;;;;;24.65;11.95;;;-4.20;99.90;;;;;;4998168;28;20037;-78
2022/01/16 07:23:45;;;;;;;23.75;12.90;;;-4.20;99.90;;;;;;5013928;28;20065;-78
2022/01/16 07:26:12;;;;;;;23.02;11.85;;;-4.20;99.90;;;;;;5014067;28;20091;-79
2022/01/16 07:28:38;;;;;;;24.95;13.30;;;-4.10;99.90;;;;;;5013797;28;20418;-80
2022/01/16 07:31:04;;;;;;;21.88;12.25;;;-4.10;99.90;;;;;;4997757;28;20052;-79
2022/01/16 07:33:30;;;;;;;21.88;11.82;;;-4.10;99.90;;;;;;4997556;28;20025;-78
2022/01/16 07:35:56;;;;;;;28.30;14.15;;;-4.10;99.90;;;;;;4997421;28;20021;-79
2022/01/16 07:38:22;;;;;;;26.40;14.85;;;-3.90;99.90;;;;;;5014836;28;20034;-79
2022/01/16 07:40:47;;;;;;;28.63;14.07;;;-4.00;99.90;;;;;;4997020;28;20049;-78
2022/01/16 07:43:14;;;;;;;27.52;14.35;;;-3.90;99.90;;;;;;4997425;28;20026;-79
2022/01/16 07:45:40;;;;;;;25.98;13.90;;;-3.80;99.90;;;;;;4997264;28;20022;-79
2022/01/16 07:48:07;;;;;;;23.88;14.30;;;-3.80;99.90;;;;;;4997319;28;20041;-80
2022/01/16 07:50:33;;;;;;;33.95;16.63;;;-3.80;99.90;;;;;;4997194;28;20109;-80
2022/01/16 07:52:58;;;;;;;23.88;15.00;;;-3.70;99.90;;;;;;5014720;28;20557;-79
2022/01/16 07:55:26;;;;;;;34.13;18.15;;;-3.60;99.90;;;;;;4997172;28;20113;-79
2022/01/16 07:57:56;;;;;;;23.25;12.85;;;-3.60;99.90;;;;;;4997034;28;20041;-78
2022/01/16 08:00:23;;;;;;;23.45;14.75;;;-3.50;99.90;;;;;;5013203;28;20121;-78
2022/01/16 08:02:50;;;;;;;25.02;13.48;;;-3.50;99.90;;;;;;5013248;28;20040;-79
2022/01/16 08:05:17;;;;;;;26.10;15.70;;;-3.40;99.90;;;;;;5013327;28;20125;-79
2022/01/16 08:07:43;;;;;;;25.10;15.07;;;-3.30;99.90;;;;;;5013169;28;20083;-78
2022/01/16 08:10:10;;;;;;;23.77;13.48;;;-3.10;99.90;;;;;;5013403;28;20385;-78
2022/01/16 08:12:36;;;;;;;22.02;13.68;;;-3.10;99.90;;;;;;5014336;28;20018;-77
2022/01/16 08:15:04;;;;;;;25.40;13.38;;;-3.10;99.90;;;;;;5012857;28;20022;-79
2022/01/16 08:17:29;;;;;;;23.95;13.57;;;-3.00;99.90;;;;;;5012877;28;20029;-79
2022/01/16 08:19:55;;;;;;;24.08;14.10;;;-2.90;99.90;;;;;;4996399;28;20073;-79
2022/01/16 08:22:21;;;;;;;25.52;12.93;;;-2.90;99.90;;;;;;5013924;28;20378;-80
2022/01/16 08:24:46;;;;;;;25.10;14.23;;;-2.80;99.90;;;;;;5014722;28;20029;-78
2022/01/16 08:27:13;;;;;;;21.42;13.05;;;-2.70;99.90;;;;;;4996983;28;20037;-80
2022/01/16 08:29:39;;;;;;;26.83;14.32;;;-2.60;99.90;;;;;;4996959;28;20359;-80
2022/01/16 08:32:05;;;;;;;29.23;14.93;;;-2.50;99.90;;;;;;4996704;28;20025;-80
2022/01/16 08:34:31;;;;;;;22.17;12.75;;;-2.40;99.90;;;;;;5014020;28;20033;-80
2022/01/16 08:36:56;;;;;;;22.17;15.10;;;-2.30;99.90;;;;;;5013707;28;20017;-81
2022/01/16 08:39:23;;;;;;;28.25;14.98;;;-2.20;99.90;;;;;;4996115;28;20049;-81
2022/01/16 08:41:49;;;;;;;26.30;15.30;;;-2.20;99.90;;;;;;4996239;28;20117;-78
2022/01/16 08:44:15;;;;;;;33.63;16.77;;;-2.20;99.90;;;;;;5013225;28;20105;-81
2022/01/16 08:46:40;;;;;;;30.45;17.83;;;-2.10;99.90;;;;;;4995766;28;20033;-79
2022/01/16 08:49:06;;;;;;;32.70;15.65;;;-2.00;99.90;;;;;;4996833;28;20030;-81
2022/01/16 08:51:32;;;;;;;24.02;14.15;;;-1.90;99.90;;;;;;5013746;28;20378;-80
2022/01/16 08:53:57;;;;;;;27.67;13.65;;;-1.80;99.90;;;;;;4995639;28;20069;-81
2022/01/16 08:56:23;;;;;;;23.13;13.38;;;-1.70;99.90;;;;;;4995769;28;20022;-81
2022/01/16 08:58:49;;;;;;;24.55;13.50;;;-1.70;99.90;;;;;;5013307;28;20037;-80
2022/01/16 09:01:14;;;;;;;26.98;15.55;;;-1.60;99.90;;;;;;4995271;28;20689;-77
2022/01/16 09:03:40;;;;;;;26.00;15.27;;;-1.50;99.90;;;;;;5013490;28;20037;-80
2022/01/16 09:06:06;;;;;;;24.75;13.75;;;-1.50;99.90;;;;;;4995766;28;20037;-80
2022/01/16 09:08:32;;;;;;;24.60;15.50;;;-1.40;99.90;;;;;;4995263;28;20018;-79
2022/01/16 09:10:58;;;;;;;23.27;12.60;;;-1.30;99.90;;;;;;5012254;28;20026;-79
2022/01/16 09:13:23;;;;;;;27.77;14.15;;;-1.20;99.90;;;;;;4995529;28;20033;-80
2022/01/16 09:15:50;;;;;;;21.52;12.77;;;-1.20;99.90;;;;;;4995739;28;20382;-79
2022/01/16 09:18:17;;;;;;;25.65;13.85;;;-1.10;99.90;;;;;;5012665;28;20041;-80
2022/01/16 09:20:44;;;;;;;27.33;15.65;;;-1.10;99.90;;;;;;5012918;28;20022;-80
2022/01/16 09:23:11;;;;;;;30.05;15.50;;;-1.00;99.90;;;;;;5013115;28;20030;-81
2022/01/16 09:25:36;;;;;;;23.98;15.32;;;-0.90;99.90;;;;;;5012800;28;20033;-78
2022/01/16 09:28:03;;;;;;;32.35;16.63;;;-0.70;99.90;;;;;;4995879;28;20021;-79
2022/01/16 09:30:30;;;;;;;32.55;17.60;;;-0.70;99.90;;;;;;5013780;28;20022;-81
2022/01/16 09:32:56;;;;;;;37.38;18.00;;;-0.60;99.90;;;;;;5012700;28;20030;-80
2022/01/16 09:35:21;;;;;;;35.35;18.35;;;-0.50;99.90;;;;;;5012574;28;20121;-79
2022/01/16 09:37:47;;;;;;;40.80;20.38;;;-0.50;99.90;;;;;;4995457;28;20124;-81
2022/01/16 09:40:15;;;;;;;33.40;18.80;;;-0.40;99.90;;;;;;4995556;28;20177;-78
2022/01/16 09:42:41;;;;;;;43.70;20.60;;;-0.30;99.90;;;;;;5012001;28;20022;-79
2022/01/16 09:45:10;;;;;;;47.42;21.50;;;-0.20;99.90;;;;;;5011889;28;20037;-80
2022/01/16 09:47:37;;;;;;;44.85;21.95;;;-0.20;99.90;;;;;;5012027;28;20026;-80
2022/01/16 09:50:05;;;;;;;38.50;20.40;;;-0.10;99.90;;;;;;5014440;28;20057;-80
2022/01/16 09:52:39;;;;;;;29.85;17.42;;;0.00;99.90;;;;;;5014019;28;20026;-80
2022/01/16 09:55:06;;;;;;;27.58;15.82;;;0.10;99.90;;;;;;5012502;28;20637;-80
2022/01/16 09:57:32;;;;;;;27.90;15.52;;;0.20;99.90;;;;;;5012188;28;20049;-82
2022/01/16 09:59:58;;;;;;;26.10;17.00;;;0.30;99.90;;;;;;5012539;28;20469;-81
2022/01/16 10:02:24;;;;;;;26.10;16.42;;;0.40;99.90;;;;;;5013846;28;20378;-85
2022/01/16 10:04:49;;;;;;;32.63;18.67;;;0.70;99.90;;;;;;4997713;28;20029;-84
2022/01/16 10:07:17;;;;;;;31.17;18.65;;;0.80;99.90;;;;;;5014853;28;20090;-85
2022/01/16 10:09:46;;;;;;;29.70;18.67;;;1.00;99.90;;;;;;5012354;28;20482;-82
2022/01/16 10:12:17;;;;;;;31.08;20.40;;;1.10;99.90;;;;;;5015961;28;20053;-84
2022/01/16 10:14:48;;;;;;;34.65;19.88;;;1.10;99.90;;;;;;5005309;28;20036;-83
2022/01/16 10:17:22;;;;;;;29.73;19.20;;;1.20;99.90;;;;;;5020128;28;20375;-83
2022/01/16 10:20:06;;;;;;;35.65;21.63;;;1.40;99.90;;;;;;5017641;28;20038;-82
2022/01/16 10:23:01;;;;;;;38.15;21.50;;;1.80;99.90;;;;;;5004120;28;20101;-80
2022/01/16 10:25:45;;;;;;;33.75;19.15;;;1.90;99.90;;;;;;5013561;28;20068;-81
2022/01/16 10:28:22;;;;;;;32.88;19.67;;;1.90;99.90;;;;;;5015855;28;20025;-80
2022/01/16 10:30:57;;;;;;;30.10;19.20;;;1.90;99.90;;;;;;5016025;28;20022;-82
2022/01/16 10:33:26;;;;;;;34.47;20.83;;;1.90;99.90;;;;;;5015657;28;20029;-80
2022/01/16 10:35:53;;;;;;;33.38;18.77;;;2.00;99.90;;;;;;5016515;28;20026;-82
2022/01/16 10:38:30;;;;;;;27.75;18.35;;;2.10;99.90;;;;;;5017271;28;20068;-81
2022/01/16 10:40:59;;;;;;;27.73;18.45;;;2.10;99.90;;;;;;4998533;28;20057;-82
2022/01/16 10:43:42;;;;;;;29.98;17.45;;;2.20;99.90;;;;;;5014594;28;20049;-80
2022/01/16 10:46:10;;;;;;;28.67;18.00;;;2.20;99.90;;;;;;4998135;28;20385;-80
2022/01/16 10:48:36;;;;;;;29.15;18.08;;;2.30;99.90;;;;;;4998008;28;20060;-80
2022/01/16 10:51:03;;;;;;;27.48;17.55;;;2.30;99.90;;;;;;4998549;28;20110;-82
2022/01/16 10:53:31;;;;;;;30.98;18.10;;;2.40;99.90;;;;;;5014328;28;20032;-80
2022/01/16 10:55:58;;;;;;;31.48;17.45;;;2.40;99.90;;;;;;5014571;28;20068;-83
2022/01/16 10:58:39;;;;;;;28.00;18.30;;;2.50;99.90;;;;;;4998637;28;20034;-79
2022/01/16 11:01:13;;;;;;;30.17;17.90;;;2.50;99.90;;;;;;5015272;28;20076;-82
2022/01/16 11:03:59;;;;;;;29.05;17.77;;;2.60;99.90;;;;;;5015190;28;20112;-80
2022/01/16 11:06:27;;;;;;;29.27;17.67;;;2.60;99.90;;;;;;4998776;28;20060;-79
2022/01/16 11:08:58;;;;;;;30.63;18.35;;;2.60;99.90;;;;;;5016549;28;20056;-82
2022/01/16 11:11:24;;;;;;;31.88;17.80;;;2.70;99.90;;;;;;5015217;28;20576;-82
2022/01/16 11:13:51;;;;;;;31.33;17.45;;;2.70;99.90;;;;;;5016394;28;20025;-80
2022/01/16 11:16:17;;;;;;;25.90;18.38;;;2.80;99.90;;;;;;5014776;28;20048;-79
2022/01/16 11:18:49;;;;;;;30.80;18.50;;;2.90;99.90;;;;;;4997695;28;20045;-79
2022/01/16 11:21:30;;;;;;;29.02;17.85;;;2.90;99.90;;;;;;4997794;28;20373;-79
2022/01/16 11:24:12;;;;;;;32.33;17.75;;;2.90;99.90;;;;;;5013650;28;20026;-79
2022/01/16 11:26:38;;;;;;;26.92;17.48;;;3.00;99.90;;;;;;5014730;28;20026;-80
2022/01/16 11:29:04;;;;;;;27.90;18.13;;;3.00;99.90;;;;;;4998409;28;20443;-81
2022/01/16 11:31:29;;;;;;;30.13;18.60;;;3.10;99.90;;;;;;4998269;28;20083;-81
2022/01/16 11:33:55;;;;;;;32.17;18.83;;;3.10;99.90;;;;;;4998548;28;20022;-82
2022/01/16 11:36:23;;;;;;;30.05;19.58;;;3.20;99.90;;;;;;4998022;28;20026;-80
2022/01/16 11:38:57;;;;;;;29.35;18.08;;;3.20;99.90;;;;;;5014419;28;20124;-83
2022/01/16 11:41:33;;;;;;;32.70;18.75;;;3.30;99.90;;;;;;5014755;28;20033;-80
2022/01/16 11:44:07;;;;;;;30.58;18.33;;;3.40;99.90;;;;;;5014521;28;20088;-79
2022/01/16 11:46:39;;;;;;;28.42;18.02;;;3.50;99.90;;;;;;5014413;28;20083;-80
2022/01/16 11:49:06;;;;;;;27.42;17.05;;;3.60;99.90;;;;;;5014128;28;20034;-82
2022/01/16 11:51:35;;;;;;;30.08;19.02;;;3.60;99.90;;;;;;5015215;28;20033;-81
2022/01/16 11:54:06;;;;;;;27.58;18.27;;;3.60;99.90;;;;;;4997734;28;20026;-81
2022/01/16 11:56:38;;;;;;;27.65;17.42;;;3.70;99.90;;;;;;5014976;28;20470;-83
2022/01/16 11:59:28;;;;;;;26.85;16.45;;;3.70;99.90;;;;;;4997254;28;20510;-81
2022/01/16 12:02:00;;;;;;;30.63;17.42;;;3.80;99.90;;;;;;5014342;28;20033;-80
2022/01/16 12:04:29;;;;;;;28.58;18.00;;;3.80;99.90;;;;;;5014051;28;20052;-79
2022/01/16 12:07:13;;;;;;;27.08;17.13;;;3.80;99.90;;;;;;4997679;28;20034;-81
2022/01/16 12:09:46;;;;;;;24.08;17.10;;;3.90;99.90;;;;;;4997391;28;20374;-81
2022/01/16 12:12:12;;;;;;;24.50;16.65;;;3.90;99.90;;;;;;5015278;28;20492;-82
2022/01/16 12:15:04;;;;;;;27.25;16.05;;;4.00;99.90;;;;;;4997325;28;20026;-80
2022/01/16 12:17:47;;;;;;;28.35;17.65;;;4.00;99.90;;;;;;4996272;28;20037;-81
2022/01/16 12:20:16;;;;;;;26.52;17.25;;;4.10;99.90;;;;;;5013888;28;20029;-80
2022/01/16 12:22:43;;;;;;;25.73;17.33;;;4.10;99.90;;;;;;4997375;28;20030;-82
2022/01/16 12:25:33;;;;;;;30.00;16.77;;;4.10;99.90;;;;;;4997754;28;20488;-78
2022/01/16 12:28:02;;;;;;;28.15;17.50;;;4.20;99.90;;;;;;5009592;28;20088;-79
2022/01/16 12:30:33;;;;;;;27.73;17.05;;;4.30;99.90;;;;;;5014141;28;20025;-79
2022/01/16 12:33:09;;;;;;;25.00;16.23;;;4.30;99.90;;;;;;5014130;28;20022;-80
2022/01/16 12:35:41;;;;;;;;;;;4.40;99.90;;;;;;5012710;28;20022;-79
2022/01/16 12:38:31;;;;;;;29.38;16.35;;;4.40;99.90;;;;;;4995673;28;19917;-79
2022/01/16 12:41:16;;;;;;;25.98;16.80;;;4.40;99.90;;;;;;4992864;28;20457;-81
2022/01/16 12:43:49;;;;;;;26.58;17.30;;;4.40;99.90;;;;;;5012904;28;20084;-80
2022/01/16 12:46:19;;;;;;;28.05;16.92;;;4.40;99.90;;;;;;5013522;28;20093;-78
2022/01/16 12:48:47;;;;;;;25.60;16.63;;;4.30;99.90;;;;;;5013649;28;20080;-80
2022/01/16 12:51:15;;;;;;;25.33;17.80;;;4.30;99.90;;;;;;5012288;28;20022;-81
2022/01/16 12:53:48;;;;;;;27.83;16.73;;;4.30;99.90;;;;;;5012436;28;20045;-78
2022/01/16 12:56:16;;;;;;;25.65;16.65;;;4.40;99.90;;;;;;5013763;28;20117;-82
2022/01/16 12:58:42;;;;;;;26.90;16.08;;;4.40;99.90;;;;;;5014038;28;20042;-78
2022/01/16 13:01:08;;;;;;;25.15;16.63;;;4.40;99.90;;;;;;4996227;28;20473;-80
2022/01/16 13:03:35;;;;;;;25.38;16.27;;;4.40;99.90;;;;;;4995287;28;20032;-80
2022/01/16 13:06:16;;;;;;;26.38;16.95;;;4.40;99.90;;;;;;5012003;28;20022;-82
2022/01/16 13:08:54;;;;;;;32.47;18.95;;;4.40;99.90;;;;;;5013153;28;20026;-84
2022/01/16 13:11:20;;;;;;;27.50;18.33;;;4.40;99.90;;;;;;4995904;28;20117;-82
2022/01/16 13:13:47;;;;;;;29.77;18.60;;;4.30;99.90;;;;;;5013548;28;20485;-81
2022/01/16 13:16:27;;;;;;;48.03;28.23;;;4.30;99.90;;;;;;5013174;28;20545;-78
2022/01/16 13:19:11;;;;;;;32.33;21.17;;;4.30;99.90;;;;;;5012103;28;20042;-80